Search for airport 
image banner adimage banner adimage banner ad
image banner ad

CL84 - Ahlem Farms

Located in Hilmar, United States

ICAO - CL84, IATA -

Data provided by Airmate  

General information

Coordinates: N37°23'18" W120°55'39"
Elevation is 73 feet MSL.
Magnetic variation is 16° East
View others Airports in California

Operational data

Special qualification required
Current time UTC:
Current local time:
METAR: KMOD 141253Z AUTO 36006KT 10SM CLR 17/14 A2998 RMK AO2 SLP150 T01670144
TAF: KMOD 141120Z 1412/1512 34009KT P6SM SKC FM142100 32016G23KT P6SM SKC FM150600 34008KT P6SM SKC
View NOTAMs / SUP AIP / TFR affecting this airport [VIEW]
Communications frequencies: [VIEW]

Runways:

RWY identifierQFULength (ft)Width (ft)SurfaceLDA (ft)
08261740ASPH
26261740ASPH

Airport contact information

Address: Hilmar United States

Satellite view of CL84